sensor_id;sensor_type;location;lat;lon;timestamp;P1;durP1;ratioP1;P2;durP2;ratioP2
69203;SDS011;56317;27.658;85.326;2022-08-18T00:04:44;22.65;;;16.63;;
69203;SDS011;56317;27.658;85.326;2022-08-18T00:07:13;27.25;;;16.67;;
69203;SDS011;56317;27.658;85.326;2022-08-18T00:09:48;23.08;;;16.70;;
69203;SDS011;56317;27.658;85.326;2022-08-18T00:12:20;22.77;;;16.00;;
69203;SDS011;56317;27.658;85.326;2022-08-18T00:14:52;25.80;;;16.13;;
69203;SDS011;56317;27.658;85.326;2022-08-18T00:17:21;23.98;;;16.15;;
69203;SDS011;56317;27.658;85.326;2022-08-18T00:19:49;23.23;;;15.70;;
69203;SDS011;56317;27.658;85.326;2022-08-18T00:22:17;18.95;;;14.75;;
69203;SDS011;56317;27.658;85.326;2022-08-18T00:24:46;24.90;;;15.25;;
69203;SDS011;56317;27.658;85.326;2022-08-18T00:27:16;28.92;;;16.08;;
69203;SDS011;56317;27.658;85.326;2022-08-18T00:29:56;21.73;;;15.55;;
69203;SDS011;56317;27.658;85.326;2022-08-18T00:32:29;22.35;;;14.68;;
69203;SDS011;56317;27.658;85.326;2022-08-18T00:35:09;23.25;;;15.63;;
69203;SDS011;56317;27.658;85.326;2022-08-18T00:37:39;25.00;;;15.82;;
69203;SDS011;56317;27.658;85.326;2022-08-18T00:40:08;20.80;;;15.27;;
69203;SDS011;56317;27.658;85.326;2022-08-18T00:42:56;25.67;;;16.23;;
69203;SDS011;56317;27.658;85.326;2022-08-18T00:45:27;25.20;;;16.10;;
69203;SDS011;56317;27.658;85.326;2022-08-18T00:48:01;29.67;;;17.77;;
69203;SDS011;56317;27.658;85.326;2022-08-18T00:50:34;26.30;;;17.48;;
69203;SDS011;56317;27.658;85.326;2022-08-18T00:55:54;26.00;;;15.80;;
69203;SDS011;56317;27.658;85.326;2022-08-18T00:58:36;28.17;;;16.75;;
69203;SDS011;56317;27.658;85.326;2022-08-18T01:01:11;24.33;;;16.35;;
69203;SDS011;56317;27.658;85.326;2022-08-18T01:03:40;24.05;;;15.95;;
69203;SDS011;56317;27.658;85.326;2022-08-18T01:11:09;26.80;;;16.67;;
69203;SDS011;56317;27.658;85.326;2022-08-18T01:13:36;27.35;;;14.73;;
69203;SDS011;56317;27.658;85.326;2022-08-18T01:16:07;21.45;;;15.43;;
69203;SDS011;56317;27.658;85.326;2022-08-18T01:18:53;20.73;;;16.25;;
69203;SDS011;56317;27.658;85.326;2022-08-18T01:21:45;19.85;;;14.38;;
69203;SDS011;56317;27.658;85.326;2022-08-18T01:24:20;23.27;;;15.65;;
69203;SDS011;56317;27.658;85.326;2022-08-18T01:27:13;24.60;;;16.00;;
69203;SDS011;56317;27.658;85.326;2022-08-18T01:29:46;28.25;;;15.50;;
69203;SDS011;56317;27.658;85.326;2022-08-18T01:32:16;28.67;;;18.38;;
69203;SDS011;56317;27.658;85.326;2022-08-18T01:34:46;25.15;;;17.17;;
69203;SDS011;56317;27.658;85.326;2022-08-18T01:37:15;18.40;;;13.43;;
69203;SDS011;56317;27.658;85.326;2022-08-18T01:39:44;18.75;;;14.02;;
69203;SDS011;56317;27.658;85.326;2022-08-18T01:42:13;17.38;;;13.25;;
69203;SDS011;56317;27.658;85.326;2022-08-18T01:44:44;21.05;;;13.43;;
69203;SDS011;56317;27.658;85.326;2022-08-18T01:47:13;18.15;;;13.50;;
69203;SDS011;56317;27.658;85.326;2022-08-18T01:49:43;21.30;;;12.93;;
69203;SDS011;56317;27.658;85.326;2022-08-18T01:52:12;20.50;;;13.23;;
69203;SDS011;56317;27.658;85.326;2022-08-18T01:54:45;28.73;;;17.00;;
69203;SDS011;56317;27.658;85.326;2022-08-18T01:57:13;25.23;;;15.25;;
69203;SDS011;56317;27.658;85.326;2022-08-18T01:59:41;23.58;;;14.32;;
69203;SDS011;56317;27.658;85.326;2022-08-18T02:02:09;24.38;;;16.05;;
69203;SDS011;56317;27.658;85.326;2022-08-18T02:07:08;24.10;;;15.27;;
69203;SDS011;56317;27.658;85.326;2022-08-18T02:09:37;20.40;;;15.25;;
69203;SDS011;56317;27.658;85.326;2022-08-18T02:12:05;27.50;;;15.57;;
69203;SDS011;56317;27.658;85.326;2022-08-18T02:14:33;19.60;;;13.68;;
69203;SDS011;56317;27.658;85.326;2022-08-18T02:17:02;22.27;;;14.32;;
69203;SDS011;56317;27.658;85.326;2022-08-18T02:19:36;21.67;;;14.75;;
69203;SDS011;56317;27.658;85.326;2022-08-18T02:22:10;23.20;;;15.60;;
69203;SDS011;56317;27.658;85.326;2022-08-18T02:24:39;25.73;;;16.93;;
69203;SDS011;56317;27.658;85.326;2022-08-18T02:27:08;30.35;;;16.48;;
69203;SDS011;56317;27.658;85.326;2022-08-18T02:29:35;27.50;;;16.77;;
69203;SDS011;56317;27.658;85.326;2022-08-18T02:32:03;28.63;;;17.85;;
69203;SDS011;56317;27.658;85.326;2022-08-18T02:34:31;27.13;;;17.35;;
69203;SDS011;56317;27.658;85.326;2022-08-18T02:36:59;30.40;;;17.73;;
69203;SDS011;56317;27.658;85.326;2022-08-18T02:39:27;23.38;;;16.60;;
69203;SDS011;56317;27.658;85.326;2022-08-18T02:41:54;27.90;;;17.92;;
69203;SDS011;56317;27.658;85.326;2022-08-18T02:44:21;31.35;;;18.52;;
69203;SDS011;56317;27.658;85.326;2022-08-18T02:46:52;25.85;;;18.50;;
69203;SDS011;56317;27.658;85.326;2022-08-18T02:49:20;26.60;;;16.52;;
69203;SDS011;56317;27.658;85.326;2022-08-18T02:51:47;24.38;;;16.05;;
69203;SDS011;56317;27.658;85.326;2022-08-18T02:54:16;22.48;;;16.75;;
69203;SDS011;56317;27.658;85.326;2022-08-18T02:56:44;25.75;;;16.85;;
69203;SDS011;56317;27.658;85.326;2022-08-18T02:59:14;25.40;;;16.92;;
69203;SDS011;56317;27.658;85.326;2022-08-18T03:01:45;19.77;;;14.85;;
69203;SDS011;56317;27.658;85.326;2022-08-18T03:04:20;24.25;;;16.20;;
69203;SDS011;56317;27.658;85.326;2022-08-18T03:06:52;21.80;;;15.82;;
69203;SDS011;56317;27.658;85.326;2022-08-18T03:09:20;24.58;;;15.77;;
69203;SDS011;56317;27.658;85.326;2022-08-18T03:11:48;22.00;;;14.23;;
69203;SDS011;56317;27.658;85.326;2022-08-18T03:14:17;20.38;;;14.30;;
69203;SDS011;56317;27.658;85.326;2022-08-18T03:16:45;22.52;;;15.85;;
69203;SDS011;56317;27.658;85.326;2022-08-18T03:19:16;21.42;;;14.25;;
69203;SDS011;56317;27.658;85.326;2022-08-18T03:21:44;23.33;;;13.80;;
69203;SDS011;56317;27.658;85.326;2022-08-18T03:24:12;20.02;;;13.45;;
69203;SDS011;56317;27.658;85.326;2022-08-18T03:26:42;20.30;;;13.75;;
69203;SDS011;56317;27.658;85.326;2022-08-18T03:29:10;19.35;;;13.45;;
69203;SDS011;56317;27.658;85.326;2022-08-18T03:31:38;23.73;;;14.10;;
69203;SDS011;56317;27.658;85.326;2022-08-18T03:34:09;19.30;;;14.50;;
69203;SDS011;56317;27.658;85.326;2022-08-18T03:36:36;21.73;;;15.18;;
69203;SDS011;56317;27.658;85.326;2022-08-18T03:39:05;19.38;;;13.93;;
69203;SDS011;56317;27.658;85.326;2022-08-18T03:41:36;22.05;;;14.50;;
69203;SDS011;56317;27.658;85.326;2022-08-18T03:44:05;25.08;;;14.82;;
69203;SDS011;56317;27.658;85.326;2022-08-18T03:46:32;23.27;;;15.55;;
69203;SDS011;56317;27.658;85.326;2022-08-18T03:49:00;23.23;;;14.82;;
69203;SDS011;56317;27.658;85.326;2022-08-18T03:51:28;23.25;;;15.57;;
69203;SDS011;56317;27.658;85.326;2022-08-18T03:54:00;25.85;;;16.00;;
69203;SDS011;56317;27.658;85.326;2022-08-18T03:56:33;24.25;;;16.00;;
69203;SDS011;56317;27.658;85.326;2022-08-18T03:59:13;22.92;;;16.42;;
69203;SDS011;56317;27.658;85.326;2022-08-18T04:01:43;29.40;;;16.15;;
69203;SDS011;56317;27.658;85.326;2022-08-18T04:04:14;25.13;;;16.20;;
69203;SDS011;56317;27.658;85.326;2022-08-18T04:06:48;22.15;;;15.45;;
69203;SDS011;56317;27.658;85.326;2022-08-18T04:09:18;26.23;;;16.30;;
69203;SDS011;56317;27.658;85.326;2022-08-18T04:11:49;22.35;;;15.45;;
69203;SDS011;56317;27.658;85.326;2022-08-18T04:14:18;18.95;;;15.05;;
69203;SDS011;56317;27.658;85.326;2022-08-18T04:16:49;21.17;;;14.68;;
69203;SDS011;56317;27.658;85.326;2022-08-18T04:19:16;21.40;;;14.77;;
69203;SDS011;56317;27.658;85.326;2022-08-18T04:21:44;21.90;;;13.93;;
69203;SDS011;56317;27.658;85.326;2022-08-18T04:24:12;22.83;;;13.63;;
69203;SDS011;56317;27.658;85.326;2022-08-18T04:26:41;27.60;;;16.13;;
69203;SDS011;56317;27.658;85.326;2022-08-18T04:29:12;17.58;;;12.45;;
69203;SDS011;56317;27.658;85.326;2022-08-18T04:31:41;18.27;;;10.32;;
69203;SDS011;56317;27.658;85.326;2022-08-18T04:34:08;16.38;;;11.02;;
69203;SDS011;56317;27.658;85.326;2022-08-18T04:36:36;19.17;;;10.98;;
69203;SDS011;56317;27.658;85.326;2022-08-18T04:39:06;15.35;;;10.32;;
69203;SDS011;56317;27.658;85.326;2022-08-18T04:41:37;20.05;;;10.32;;
69203;SDS011;56317;27.658;85.326;2022-08-18T04:44:06;16.08;;;9.73;;
69203;SDS011;56317;27.658;85.326;2022-08-18T04:46:38;15.75;;;10.27;;
69203;SDS011;56317;27.658;85.326;2022-08-18T04:49:20;12.27;;;8.93;;
69203;SDS011;56317;27.658;85.326;2022-08-18T04:51:50;14.32;;;10.15;;
69203;SDS011;56317;27.658;85.326;2022-08-18T04:54:38;16.58;;;9.80;;
69203;SDS011;56317;27.658;85.326;2022-08-18T04:57:23;14.20;;;9.00;;
69203;SDS011;56317;27.658;85.326;2022-08-18T04:59:50;15.20;;;8.27;;
69203;SDS011;56317;27.658;85.326;2022-08-18T05:02:20;12.00;;;8.55;;
69203;SDS011;56317;27.658;85.326;2022-08-18T05:04:47;11.70;;;7.40;;
69203;SDS011;56317;27.658;85.326;2022-08-18T05:07:16;14.07;;;7.57;;
69203;SDS011;56317;27.658;85.326;2022-08-18T05:09:45;18.42;;;8.63;;
69203;SDS011;56317;27.658;85.326;2022-08-18T05:12:13;13.43;;;8.02;;
69203;SDS011;56317;27.658;85.326;2022-08-18T05:14:41;15.93;;;7.45;;
69203;SDS011;56317;27.658;85.326;2022-08-18T05:17:10;16.00;;;7.38;;
69203;SDS011;56317;27.658;85.326;2022-08-18T05:19:38;10.43;;;7.90;;
69203;SDS011;56317;27.658;85.326;2022-08-18T05:22:09;10.13;;;6.75;;
69203;SDS011;56317;27.658;85.326;2022-08-18T05:24:42;9.52;;;6.47;;
69203;SDS011;56317;27.658;85.326;2022-08-18T05:27:09;11.45;;;6.90;;
69203;SDS011;56317;27.658;85.326;2022-08-18T05:29:37;11.18;;;6.57;;
69203;SDS011;56317;27.658;85.326;2022-08-18T05:32:07;15.98;;;7.18;;
69203;SDS011;56317;27.658;85.326;2022-08-18T05:34:35;11.30;;;6.35;;
69203;SDS011;56317;27.658;85.326;2022-08-18T05:37:20;9.95;;;6.65;;
69203;SDS011;56317;27.658;85.326;2022-08-18T05:39:54;15.20;;;7.00;;
69203;SDS011;56317;27.658;85.326;2022-08-18T05:42:26;12.25;;;7.20;;
69203;SDS011;56317;27.658;85.326;2022-08-18T05:44:55;18.48;;;7.40;;
69203;SDS011;56317;27.658;85.326;2022-08-18T05:47:29;9.85;;;6.72;;
69203;SDS011;56317;27.658;85.326;2022-08-18T05:50:03;13.73;;;6.93;;
69203;SDS011;56317;27.658;85.326;2022-08-18T05:52:54;14.93;;;6.78;;
69203;SDS011;56317;27.658;85.326;2022-08-18T05:58:16;13.10;;;6.43;;
69203;SDS011;56317;27.658;85.326;2022-08-18T06:00:53;13.00;;;6.93;;
69203;SDS011;56317;27.658;85.326;2022-08-18T06:03:31;15.35;;;7.10;;
69203;SDS011;56317;27.658;85.326;2022-08-18T06:06:10;7.13;;;4.85;;
69203;SDS011;56317;27.658;85.326;2022-08-18T06:08:55;9.30;;;4.93;;
69203;SDS011;56317;27.658;85.326;2022-08-18T06:11:23;7.68;;;3.78;;
69203;SDS011;56317;27.658;85.326;2022-08-18T06:13:54;8.98;;;4.55;;
69203;SDS011;56317;27.658;85.326;2022-08-18T06:25:13;11.90;;;4.68;;
69203;SDS011;56317;27.658;85.326;2022-08-18T06:27:36;14.82;;;5.65;;
69203;SDS011;56317;27.658;85.326;2022-08-18T06:31:03;10.85;;;5.88;;
69203;SDS011;56317;27.658;85.326;2022-08-18T06:36:11;6.50;;;3.95;;
69203;SDS011;56317;27.658;85.326;2022-08-18T06:41:47;5.40;;;3.35;;
69203;SDS011;56317;27.658;85.326;2022-08-18T06:44:20;9.20;;;3.40;;
69203;SDS011;56317;27.658;85.326;2022-08-18T06:47:23;6.53;;;3.10;;
69203;SDS011;56317;27.658;85.326;2022-08-18T06:49:57;5.47;;;2.60;;
69203;SDS011;56317;27.658;85.326;2022-08-18T06:52:35;6.47;;;3.38;;
69203;SDS011;56317;27.658;85.326;2022-08-18T06:55:14;7.45;;;3.00;;
69203;SDS011;56317;27.658;85.326;2022-08-18T06:57:56;8.02;;;3.33;;
69203;SDS011;56317;27.658;85.326;2022-08-18T07:00:26;7.07;;;4.18;;
69203;SDS011;56317;27.658;85.326;2022-08-18T07:03:06;6.25;;;2.95;;
69203;SDS011;56317;27.658;85.326;2022-08-18T07:06:00;8.80;;;3.90;;
69203;SDS011;56317;27.658;85.326;2022-08-18T07:16:47;8.77;;;4.70;;
69203;SDS011;56317;27.658;85.326;2022-08-18T07:19:17;10.45;;;5.60;;
69203;SDS011;56317;27.658;85.326;2022-08-18T07:21:46;9.18;;;4.50;;
69203;SDS011;56317;27.658;85.326;2022-08-18T07:24:32;10.73;;;4.85;;
69203;SDS011;56317;27.658;85.326;2022-08-18T07:30:00;9.23;;;4.50;;
69203;SDS011;56317;27.658;85.326;2022-08-18T07:32:34;8.73;;;3.90;;
69203;SDS011;56317;27.658;85.326;2022-08-18T07:35:21;12.05;;;4.00;;
69203;SDS011;56317;27.658;85.326;2022-08-18T07:41:02;9.23;;;4.25;;
69203;SDS011;56317;27.658;85.326;2022-08-18T07:43:39;9.35;;;3.92;;
69203;SDS011;56317;27.658;85.326;2022-08-18T07:46:37;10.70;;;5.18;;
69203;SDS011;56317;27.658;85.326;2022-08-18T07:54:29;7.03;;;4.45;;
69203;SDS011;56317;27.658;85.326;2022-08-18T07:57:13;10.38;;;5.03;;
69203;SDS011;56317;27.658;85.326;2022-08-18T08:00:21;9.10;;;4.80;;
69203;SDS011;56317;27.658;85.326;2022-08-18T08:08:54;8.82;;;5.00;;
69203;SDS011;56317;27.658;85.326;2022-08-18T08:22:11;5.53;;;3.65;;
69203;SDS011;56317;27.658;85.326;2022-08-18T08:30:35;5.30;;;3.38;;
69203;SDS011;56317;27.658;85.326;2022-08-18T08:41:09;10.90;;;3.92;;
69203;SDS011;56317;27.658;85.326;2022-08-18T08:46:55;10.57;;;4.25;;
69203;SDS011;56317;27.658;85.326;2022-08-18T08:49:41;9.07;;;3.38;;
69203;SDS011;56317;27.658;85.326;2022-08-18T08:55:50;10.00;;;3.50;;
69203;SDS011;56317;27.658;85.326;2022-08-18T09:00:34;5.18;;;2.90;;
69203;SDS011;56317;27.658;85.326;2022-08-18T09:03:25;8.93;;;2.85;;
69203;SDS011;56317;27.658;85.326;2022-08-18T09:06:12;9.35;;;3.08;;
69203;SDS011;56317;27.658;85.326;2022-08-18T09:23:03;7.10;;;3.50;;
69203;SDS011;56317;27.658;85.326;2022-08-18T09:25:51;7.93;;;3.60;;
69203;SDS011;56317;27.658;85.326;2022-08-18T09:31:42;8.02;;;4.45;;
69203;SDS011;56317;27.658;85.326;2022-08-18T09:34:16;9.80;;;5.05;;
69203;SDS011;56317;27.658;85.326;2022-08-18T09:39:36;9.60;;;6.05;;
69203;SDS011;56317;27.658;85.326;2022-08-18T09:42:26;11.15;;;6.88;;
69203;SDS011;56317;27.658;85.326;2022-08-18T09:44:56;9.38;;;7.22;;
69203;SDS011;56317;27.658;85.326;2022-08-18T09:49:55;10.60;;;6.75;;
69203;SDS011;56317;27.658;85.326;2022-08-18T09:57:37;14.88;;;6.93;;
69203;SDS011;56317;27.658;85.326;2022-08-18T10:08:26;16.10;;;7.57;;
69203;SDS011;56317;27.658;85.326;2022-08-18T10:24:32;15.80;;;10.23;;
69203;SDS011;56317;27.658;85.326;2022-08-18T10:27:02;19.83;;;10.82;;
69203;SDS011;56317;27.658;85.326;2022-08-18T10:29:46;14.77;;;9.48;;
69203;SDS011;56317;27.658;85.326;2022-08-18T10:32:17;17.50;;;11.43;;
69203;SDS011;56317;27.658;85.326;2022-08-18T10:34:50;22.42;;;11.93;;
69203;SDS011;56317;27.658;85.326;2022-08-18T10:37:22;17.52;;;9.65;;
69203;SDS011;56317;27.658;85.326;2022-08-18T10:40:04;15.40;;;9.65;;
69203;SDS011;56317;27.658;85.326;2022-08-18T10:42:48;18.52;;;9.57;;
69203;SDS011;56317;27.658;85.326;2022-08-18T10:45:46;23.13;;;12.85;;
69203;SDS011;56317;27.658;85.326;2022-08-18T10:48:21;15.32;;;9.65;;
69203;SDS011;56317;27.658;85.326;2022-08-18T10:51:01;16.17;;;11.00;;
69203;SDS011;56317;27.658;85.326;2022-08-18T10:54:13;21.30;;;10.27;;
69203;SDS011;56317;27.658;85.326;2022-08-18T11:00:11;17.90;;;9.52;;
69203;SDS011;56317;27.658;85.326;2022-08-18T11:05:17;13.15;;;8.95;;
69203;SDS011;56317;27.658;85.326;2022-08-18T11:07:49;17.83;;;9.65;;
69203;SDS011;56317;27.658;85.326;2022-08-18T11:10:38;14.80;;;9.20;;
69203;SDS011;56317;27.658;85.326;2022-08-18T11:15:56;28.42;;;9.20;;
69203;SDS011;56317;27.658;85.326;2022-08-18T11:18:39;14.65;;;8.93;;
69203;SDS011;56317;27.658;85.326;2022-08-18T11:24:13;17.75;;;9.70;;
69203;SDS011;56317;27.658;85.326;2022-08-18T11:26:50;19.73;;;9.82;;
69203;SDS011;56317;27.658;85.326;2022-08-18T11:29:25;19.65;;;10.68;;
69203;SDS011;56317;27.658;85.326;2022-08-18T11:34:40;17.80;;;10.18;;
69203;SDS011;56317;27.658;85.326;2022-08-18T11:39:49;16.45;;;9.07;;
69203;SDS011;56317;27.658;85.326;2022-08-18T11:42:26;13.85;;;9.23;;
69203;SDS011;56317;27.658;85.326;2022-08-18T11:45:05;16.20;;;9.18;;
69203;SDS011;56317;27.658;85.326;2022-08-18T11:50:44;17.70;;;10.82;;
69203;SDS011;56317;27.658;85.326;2022-08-18T11:58:47;16.65;;;9.45;;
69203;SDS011;56317;27.658;85.326;2022-08-18T12:04:12;17.88;;;10.15;;
69203;SDS011;56317;27.658;85.326;2022-08-18T12:09:33;15.98;;;10.10;;
69203;SDS011;56317;27.658;85.326;2022-08-18T12:17:41;19.55;;;12.15;;
69203;SDS011;56317;27.658;85.326;2022-08-18T12:20:11;28.55;;;18.52;;
69203;SDS011;56317;27.658;85.326;2022-08-18T12:22:40;23.23;;;13.98;;
69203;SDS011;56317;27.658;85.326;2022-08-18T12:25:11;24.20;;;11.25;;
69203;SDS011;56317;27.658;85.326;2022-08-18T12:27:41;16.73;;;10.47;;
69203;SDS011;56317;27.658;85.326;2022-08-18T12:30:09;18.88;;;11.05;;
69203;SDS011;56317;27.658;85.326;2022-08-18T12:32:37;16.55;;;10.38;;
69203;SDS011;56317;27.658;85.326;2022-08-18T12:35:05;22.92;;;11.32;;
69203;SDS011;56317;27.658;85.326;2022-08-18T12:37:36;16.90;;;10.73;;
69203;SDS011;56317;27.658;85.326;2022-08-18T12:40:06;16.25;;;11.13;;
69203;SDS011;56317;27.658;85.326;2022-08-18T12:42:34;22.38;;;10.55;;
69203;SDS011;56317;27.658;85.326;2022-08-18T12:45:02;16.55;;;10.50;;
69203;SDS011;56317;27.658;85.326;2022-08-18T12:47:29;16.52;;;10.88;;
69203;SDS011;56317;27.658;85.326;2022-08-18T12:49:56;16.85;;;10.32;;
69203;SDS011;56317;27.658;85.326;2022-08-18T12:52:23;17.08;;;9.50;;
69203;SDS011;56317;27.658;85.326;2022-08-18T12:54:51;14.60;;;9.05;;
69203;SDS011;56317;27.658;85.326;2022-08-18T12:57:22;15.23;;;10.18;;
69203;SDS011;56317;27.658;85.326;2022-08-18T12:59:52;10.98;;;7.93;;
69203;SDS011;56317;27.658;85.326;2022-08-18T13:02:22;20.27;;;9.90;;
69203;SDS011;56317;27.658;85.326;2022-08-18T13:04:49;17.08;;;8.27;;
69203;SDS011;56317;27.658;85.326;2022-08-18T13:07:16;13.48;;;7.47;;
69203;SDS011;56317;27.658;85.326;2022-08-18T13:09:43;11.60;;;7.00;;
69203;SDS011;56317;27.658;85.326;2022-08-18T13:12:11;9.63;;;5.50;;
69203;SDS011;56317;27.658;85.326;2022-08-18T13:14:39;9.00;;;5.53;;
69203;SDS011;56317;27.658;85.326;2022-08-18T13:17:06;13.00;;;6.18;;
69203;SDS011;56317;27.658;85.326;2022-08-18T13:19:34;12.80;;;7.07;;
69203;SDS011;56317;27.658;85.326;2022-08-18T13:22:01;12.13;;;6.75;;
69203;SDS011;56317;27.658;85.326;2022-08-18T13:24:28;12.38;;;7.78;;
69203;SDS011;56317;27.658;85.326;2022-08-18T13:26:55;13.10;;;8.02;;
69203;SDS011;56317;27.658;85.326;2022-08-18T13:29:23;12.25;;;7.85;;
69203;SDS011;56317;27.658;85.326;2022-08-18T13:31:50;13.82;;;8.10;;
69203;SDS011;56317;27.658;85.326;2022-08-18T13:34:22;15.00;;;7.85;;
69203;SDS011;56317;27.658;85.326;2022-08-18T13:36:53;12.57;;;8.27;;
69203;SDS011;56317;27.658;85.326;2022-08-18T13:39:21;11.60;;;7.05;;
69203;SDS011;56317;27.658;85.326;2022-08-18T13:41:50;12.73;;;7.45;;
69203;SDS011;56317;27.658;85.326;2022-08-18T13:44:18;10.27;;;6.60;;
69203;SDS011;56317;27.658;85.326;2022-08-18T13:46:47;11.40;;;7.75;;
69203;SDS011;56317;27.658;85.326;2022-08-18T13:49:17;12.70;;;6.53;;
69203;SDS011;56317;27.658;85.326;2022-08-18T13:51:46;11.63;;;7.15;;
69203;SDS011;56317;27.658;85.326;2022-08-18T13:54:19;10.90;;;6.85;;
69203;SDS011;56317;27.658;85.326;2022-08-18T13:56:51;10.80;;;7.35;;
69203;SDS011;56317;27.658;85.326;2022-08-18T13:59:19;13.65;;;8.88;;
69203;SDS011;56317;27.658;85.326;2022-08-18T14:01:47;12.25;;;7.82;;
69203;SDS011;56317;27.658;85.326;2022-08-18T14:04:18;11.43;;;8.35;;
69203;SDS011;56317;27.658;85.326;2022-08-18T14:06:50;11.48;;;6.95;;
69203;SDS011;56317;27.658;85.326;2022-08-18T14:09:17;9.82;;;6.80;;
69203;SDS011;56317;27.658;85.326;2022-08-18T14:11:45;15.55;;;7.90;;
69203;SDS011;56317;27.658;85.326;2022-08-18T14:14:14;12.70;;;8.00;;
69203;SDS011;56317;27.658;85.326;2022-08-18T14:16:41;13.40;;;8.00;;
69203;SDS011;56317;27.658;85.326;2022-08-18T14:19:08;10.32;;;7.15;;
69203;SDS011;56317;27.658;85.326;2022-08-18T14:21:53;10.63;;;7.30;;
69203;SDS011;56317;27.658;85.326;2022-08-18T14:24:39;13.90;;;7.00;;
69203;SDS011;56317;27.658;85.326;2022-08-18T14:27:26;10.52;;;7.13;;
69203;SDS011;56317;27.658;85.326;2022-08-18T14:30:05;11.82;;;7.30;;
69203;SDS011;56317;27.658;85.326;2022-08-18T14:32:35;9.95;;;6.57;;
69203;SDS011;56317;27.658;85.326;2022-08-18T14:35:03;10.98;;;7.38;;
69203;SDS011;56317;27.658;85.326;2022-08-18T14:37:32;11.80;;;6.47;;
69203;SDS011;56317;27.658;85.326;2022-08-18T14:40:00;9.35;;;5.78;;
69203;SDS011;56317;27.658;85.326;2022-08-18T14:42:28;11.00;;;7.03;;
69203;SDS011;56317;27.658;85.326;2022-08-18T14:44:55;9.63;;;6.80;;
69203;SDS011;56317;27.658;85.326;2022-08-18T14:47:23;8.68;;;6.18;;
69203;SDS011;56317;27.658;85.326;2022-08-18T14:49:53;9.13;;;5.68;;
69203;SDS011;56317;27.658;85.326;2022-08-18T14:52:22;12.18;;;6.90;;
69203;SDS011;56317;27.658;85.326;2022-08-18T14:54:50;10.38;;;5.97;;
69203;SDS011;56317;27.658;85.326;2022-08-18T14:57:17;10.82;;;6.15;;
69203;SDS011;56317;27.658;85.326;2022-08-18T14:59:45;8.02;;;5.63;;
69203;SDS011;56317;27.658;85.326;2022-08-18T15:02:12;9.45;;;5.72;;
69203;SDS011;56317;27.658;85.326;2022-08-18T15:04:39;9.63;;;5.78;;
69203;SDS011;56317;27.658;85.326;2022-08-18T15:07:08;8.48;;;5.30;;
69203;SDS011;56317;27.658;85.326;2022-08-18T15:09:35;12.25;;;6.40;;
69203;SDS011;56317;27.658;85.326;2022-08-18T15:12:02;9.23;;;6.30;;
69203;SDS011;56317;27.658;85.326;2022-08-18T15:14:31;9.80;;;5.45;;
69203;SDS011;56317;27.658;85.326;2022-08-18T15:17:00;9.10;;;5.63;;
69203;SDS011;56317;27.658;85.326;2022-08-18T15:19:28;11.25;;;6.60;;
69203;SDS011;56317;27.658;85.326;2022-08-18T15:21:55;11.25;;;6.30;;
69203;SDS011;56317;27.658;85.326;2022-08-18T15:24:41;13.88;;;6.38;;
69203;SDS011;56317;27.658;85.326;2022-08-18T15:27:35;10.70;;;7.15;;
69203;SDS011;56317;27.658;85.326;2022-08-18T15:30:05;14.52;;;8.73;;
69203;SDS011;56317;27.658;85.326;2022-08-18T15:32:35;17.80;;;9.73;;
69203;SDS011;56317;27.658;85.326;2022-08-18T15:35:03;15.52;;;9.13;;
69203;SDS011;56317;27.658;85.326;2022-08-18T15:37:33;14.57;;;9.40;;
69203;SDS011;56317;27.658;85.326;2022-08-18T15:40:10;15.48;;;9.35;;
69203;SDS011;56317;27.658;85.326;2022-08-18T15:42:46;16.27;;;9.13;;
69203;SDS011;56317;27.658;85.326;2022-08-18T15:45:16;17.93;;;10.50;;
69203;SDS011;56317;27.658;85.326;2022-08-18T15:47:44;18.98;;;10.77;;
69203;SDS011;56317;27.658;85.326;2022-08-18T15:50:15;17.50;;;8.80;;
69203;SDS011;56317;27.658;85.326;2022-08-18T15:52:46;13.00;;;8.05;;
69203;SDS011;56317;27.658;85.326;2022-08-18T15:55:21;13.50;;;6.90;;
69203;SDS011;56317;27.658;85.326;2022-08-18T15:57:49;10.50;;;5.75;;
69203;SDS011;56317;27.658;85.326;2022-08-18T16:00:18;13.38;;;6.30;;
69203;SDS011;56317;27.658;85.326;2022-08-18T16:02:52;13.05;;;6.93;;
69203;SDS011;56317;27.658;85.326;2022-08-18T16:05:24;9.95;;;5.32;;
69203;SDS011;56317;27.658;85.326;2022-08-18T16:07:57;12.05;;;5.88;;
69203;SDS011;56317;27.658;85.326;2022-08-18T16:10:27;10.32;;;5.80;;
69203;SDS011;56317;27.658;85.326;2022-08-18T16:12:57;10.50;;;5.88;;
69203;SDS011;56317;27.658;85.326;2022-08-18T16:15:29;9.32;;;5.72;;
69203;SDS011;56317;27.658;85.326;2022-08-18T16:18:00;9.52;;;5.25;;
69203;SDS011;56317;27.658;85.326;2022-08-18T16:20:28;9.10;;;5.22;;
69203;SDS011;56317;27.658;85.326;2022-08-18T16:22:55;10.13;;;6.05;;
69203;SDS011;56317;27.658;85.326;2022-08-18T16:25:23;18.67;;;6.28;;
69203;SDS011;56317;27.658;85.326;2022-08-18T16:27:51;10.55;;;6.25;;
69203;SDS011;56317;27.658;85.326;2022-08-18T16:30:20;10.23;;;6.40;;
69203;SDS011;56317;27.658;85.326;2022-08-18T16:32:49;12.13;;;7.65;;
69203;SDS011;56317;27.658;85.326;2022-08-18T16:35:18;13.10;;;8.80;;
69203;SDS011;56317;27.658;85.326;2022-08-18T16:37:46;12.68;;;8.38;;
69203;SDS011;56317;27.658;85.326;2022-08-18T16:40:14;12.45;;;9.35;;
69203;SDS011;56317;27.658;85.326;2022-08-18T16:42:43;13.88;;;8.88;;
69203;SDS011;56317;27.658;85.326;2022-08-18T16:45:11;14.07;;;9.73;;
69203;SDS011;56317;27.658;85.326;2022-08-18T16:47:39;14.50;;;9.73;;
69203;SDS011;56317;27.658;85.326;2022-08-18T16:50:11;12.68;;;8.88;;
69203;SDS011;56317;27.658;85.326;2022-08-18T16:52:40;12.32;;;8.73;;
69203;SDS011;56317;27.658;85.326;2022-08-18T16:55:08;17.13;;;10.93;;
69203;SDS011;56317;27.658;85.326;2022-08-18T16:57:40;15.13;;;9.98;;
69203;SDS011;56317;27.658;85.326;2022-08-18T17:00:29;14.77;;;9.85;;
69203;SDS011;56317;27.658;85.326;2022-08-18T17:03:16;16.25;;;10.35;;
69203;SDS011;56317;27.658;85.326;2022-08-18T17:06:03;14.13;;;10.40;;
69203;SDS011;56317;27.658;85.326;2022-08-18T17:08:38;15.15;;;11.10;;
69203;SDS011;56317;27.658;85.326;2022-08-18T17:11:08;15.60;;;10.15;;
69203;SDS011;56317;27.658;85.326;2022-08-18T17:13:42;13.77;;;9.57;;
69203;SDS011;56317;27.658;85.326;2022-08-18T17:16:11;13.90;;;10.07;;
69203;SDS011;56317;27.658;85.326;2022-08-18T17:18:39;13.23;;;9.60;;
69203;SDS011;56317;27.658;85.326;2022-08-18T17:21:08;16.05;;;10.10;;
69203;SDS011;56317;27.658;85.326;2022-08-18T17:23:38;15.60;;;9.80;;
69203;SDS011;56317;27.658;85.326;2022-08-18T17:29:16;14.40;;;9.60;;
69203;SDS011;56317;27.658;85.326;2022-08-18T17:31:45;14.85;;;10.80;;
69203;SDS011;56317;27.658;85.326;2022-08-18T17:34:39;15.68;;;9.40;;
69203;SDS011;56317;27.658;85.326;2022-08-18T17:37:16;9.55;;;6.65;;
69203;SDS011;56317;27.658;85.326;2022-08-18T17:40:03;10.27;;;6.90;;
69203;SDS011;56317;27.658;85.326;2022-08-18T17:43:00;10.48;;;7.00;;
69203;SDS011;56317;27.658;85.326;2022-08-18T17:45:29;14.93;;;7.85;;
69203;SDS011;56317;27.658;85.326;2022-08-18T17:50:34;6.85;;;4.32;;
69203;SDS011;56317;27.658;85.326;2022-08-18T17:56:14;9.75;;;4.57;;